Walcott, Arkansas
Current Conditions -  °F | °C
As of 10:15 PM on Wednesday 26 Nov 2014 (Local Time) from K4M9 Reporting Station
Overcast Overcast  
Wind Chill: 34°   Ceiling: 7000
Heat Index: 39°   Visibility: 10mi
Dew Point: 32°   Wind: 8mph
Humidity: 75%   Direction: 280°W
Pressure: 30.18"   Gusts: NA
Location:  36.04°N, 90.67°W
Report Text: K4M9 270415Z AUTO 28007KT 10SM SCT045 OVC070 04/00 A3018 RMK AO2
Loading
Personal Weather Stations






























Interactive Weather Map New forecast layout! Learn more

10-Day Weather Forecast

Advertisements
Track Severe Weather on mobile